Time;durP1;ratioP1;P1;durP2;ratioP2;P2;SDS_P1;SDS_P2;PMS_P1;PMS_P2;Temp;Humidity;BMP_temperature;BMP_pressure;BME280_temperature;BME280_humidity;BME280_pressure;Samples;Min_cycle;Max_cycle;Signal;HPM_P1;HPM_P2
2021/01/19 00:01:17;;;;;;;12.30;7.30;;;;;;;;;;5082393;28;20089;-89
2021/01/19 00:03:44;;;;;;;8.77;6.68;;;;;;;;;;5082502;28;20024;-88
2021/01/19 00:06:10;;;;;;;15.40;8.05;;;;;;;;;;5099453;28;20118;-88
2021/01/19 00:08:36;;;;;;;11.65;7.03;;;;;;;;;;5082168;28;20030;-86
2021/01/19 00:11:03;;;;;;;13.55;6.25;;;;;;;;;;5083307;28;20061;-87
2021/01/19 00:13:29;;;;;;;8.68;5.95;;;;;;;;;;5082430;28;20130;-88
2021/01/19 00:15:55;;;;;;;10.77;5.78;;;;;;;;;;5085039;28;20056;-87
2021/01/19 00:18:21;;;;;;;12.80;6.35;;;;;;;;;;5105560;28;20024;-88
2021/01/19 00:20:48;;;;;;;10.27;5.50;;;;;;;;;;5105831;28;20028;-84
2021/01/19 00:23:14;;;;;;;11.27;5.35;;;;;;;;;;5073035;28;20067;-87
2021/01/19 00:25:43;;;;;;;12.88;6.20;;;;;;;;;;5090361;28;20510;-88
2021/01/19 00:28:10;;;;;;;14.25;6.57;;;;;;;;;;5091234;28;20038;-87
2021/01/19 00:30:40;;;;;;;11.38;6.20;;;;;;;;;;5095237;28;20037;-87
2021/01/19 00:33:07;;;;;;;12.90;6.53;;;;;;;;;;5033607;28;20018;-88
2021/01/19 00:35:33;;;;;;;13.95;6.78;;;;;;;;;;5101865;28;20010;-87
2021/01/19 00:38:05;;;;;;;14.02;7.57;;;;;;;;;;5033324;28;20053;-88
2021/01/19 00:40:31;;;;;;;16.77;8.13;;;;;;;;;;5032972;28;20018;-86
2021/01/19 00:42:57;;;;;;;15.73;7.15;;;;;;;;;;5033485;28;20029;-86
2021/01/19 00:45:24;;;;;;;15.02;6.93;;;;;;;;;;5035692;28;20040;-87
2021/01/19 00:47:50;;;;;;;19.23;7.68;;;;;;;;;;5035159;28;20044;-88
2021/01/19 00:50:16;;;;;;;14.65;7.25;;;;;;;;;;5098570;28;20042;-86
2021/01/19 00:52:42;;;;;;;12.25;6.57;;;;;;;;;;5092452;28;20038;-87
2021/01/19 00:55:09;;;;;;;19.20;7.57;;;;;;;;;;5023060;28;20038;-86
2021/01/19 00:57:35;;;;;;;13.32;6.60;;;;;;;;;;5091038;28;20132;-86
2021/01/19 01:00:01;;;;;;;13.57;7.10;;;;;;;;;;5024286;28;20373;-84
2021/01/19 01:02:27;;;;;;;13.15;7.47;;;;;;;;;;5030434;28;20030;-88
2021/01/19 01:04:53;;;;;;;16.13;6.28;;;;;;;;;;5029732;28;20056;-86
2021/01/19 01:07:19;;;;;;;16.15;6.75;;;;;;;;;;5096818;28;20021;-86
2021/01/19 01:09:45;;;;;;;15.65;7.05;;;;;;;;;;5093673;28;20087;-86
2021/01/19 01:12:12;;;;;;;15.50;7.10;;;;;;;;;;5019746;28;20336;-86
2021/01/19 01:14:38;;;;;;;20.80;6.55;;;;;;;;;;5086329;28;20034;-88
2021/01/19 01:17:04;;;;;;;18.33;6.13;;;;;;;;;;5017442;28;20049;-87
2021/01/19 01:19:30;;;;;;;13.02;5.95;;;;;;;;;;5085518;28;20041;-85
2021/01/19 01:21:59;;;;;;;15.55;6.13;;;;;;;;;;5018432;28;20033;-86
2021/01/19 01:24:25;;;;;;;14.88;7.03;;;;;;;;;;5086114;28;20033;-86
2021/01/19 01:26:54;;;;;;;18.52;7.55;;;;;;;;;;5086701;28;20053;-86
2021/01/19 01:29:20;;;;;;;13.70;5.75;;;;;;;;;;5084667;28;20052;-86
2021/01/19 01:31:47;;;;;;;15.35;6.72;;;;;;;;;;5084484;28;20034;-89
2021/01/19 01:34:13;;;;;;;16.58;5.43;;;;;;;;;;5016508;28;20053;-86
2021/01/19 01:36:42;;;;;;;19.05;6.10;;;;;;;;;;5084461;28;20034;-88
2021/01/19 01:39:08;;;;;;;19.17;6.22;;;;;;;;;;5084188;28;20026;-87
2021/01/19 01:41:37;;;;;;;16.23;7.00;;;;;;;;;;5016108;28;20026;-86
2021/01/19 01:44:03;;;;;;;17.60;5.63;;;;;;;;;;5016159;28;20094;-87
2021/01/19 01:46:30;;;;;;;18.35;5.63;;;;;;;;;;5084264;28;20360;-87
2021/01/19 01:48:57;;;;;;;11.23;5.18;;;;;;;;;;5084360;28;20051;-87
2021/01/19 01:51:24;;;;;;;14.05;5.63;;;;;;;;;;5084227;28;20067;-87
2021/01/19 01:53:53;;;;;;;12.65;5.20;;;;;;;;;;5015092;28;20357;-85
2021/01/19 01:56:19;;;;;;;15.30;6.80;;;;;;;;;;5015031;28;20045;-86
2021/01/19 01:58:46;;;;;;;14.68;4.55;;;;;;;;;;5084268;28;20034;-87
2021/01/19 02:01:12;;;;;;;15.93;4.75;;;;;;;;;;5015891;28;20026;-86
2021/01/19 02:03:39;;;;;;;19.92;4.80;;;;;;;;;;5084436;28;20030;-87
2021/01/19 02:06:05;;;;;;;7.68;4.03;;;;;;;;;;5084363;28;20038;-87
2021/01/19 02:08:41;;;;;;;11.63;4.95;;;;;;;;;;5085182;28;20034;-87
2021/01/19 02:11:17;;;;;;;6.43;3.08;;;;;;;;;;5015830;28;20022;-89
2021/01/19 02:14:04;;;;;;;11.57;4.55;;;;;;;;;;5084547;28;20034;-88
2021/01/19 02:16:33;;;;;;;16.73;5.30;;;;;;;;;;5084307;28;20034;-87
2021/01/19 02:19:17;;;;;;;10.70;3.40;;;;;;;;;;5015966;28;20041;-88
2021/01/19 02:22:02;;;;;;;9.90;3.45;;;;;;;;;;5084177;28;20037;-87
2021/01/19 02:24:34;;;;;;;15.32;3.80;;;;;;;;;;5084530;28;20026;-86
2021/01/19 02:27:00;;;;;;;10.43;2.92;;;;;;;;;;5084163;28;20046;-86
2021/01/19 02:29:26;;;;;;;7.20;2.90;;;;;;;;;;5083320;28;20428;-87
2021/01/19 02:32:05;;;;;;;14.32;3.72;;;;;;;;;;5084399;28;20033;-87
2021/01/19 02:34:43;;;;;;;16.40;3.55;;;;;;;;;;5083849;28;20115;-85
2021/01/19 02:37:15;;;;;;;8.32;2.63;;;;;;;;;;5083877;28;20098;-88
2021/01/19 02:39:49;;;;;;;9.60;3.03;;;;;;;;;;5083529;28;20049;-89
2021/01/19 02:42:20;;;;;;;7.65;2.28;;;;;;;;;;5084021;28;20061;-91
2021/01/19 02:44:50;;;;;;;8.55;2.78;;;;;;;;;;5083983;28;20140;-89
2021/01/19 02:47:16;;;;;;;7.68;2.42;;;;;;;;;;5016011;28;20037;-85
2021/01/19 02:49:43;;;;;;;10.07;3.03;;;;;;;;;;5083765;28;20029;-87
2021/01/19 02:52:10;;;;;;;5.10;2.40;;;;;;;;;;5083356;28;20034;-89
2021/01/19 02:54:36;;;;;;;8.05;2.85;;;;;;;;;;5083206;28;20030;-89
2021/01/19 02:57:02;;;;;;;14.63;3.05;;;;;;;;;;5082757;28;20405;-87
2021/01/19 02:59:28;;;;;;;14.32;3.10;;;;;;;;;;5082981;28;20094;-89
2021/01/19 03:02:07;;;;;;;6.22;2.35;;;;;;;;;;5014780;28;20326;-86
2021/01/19 03:04:33;;;;;;;6.93;2.30;;;;;;;;;;5083691;28;20038;-88
2021/01/19 03:07:05;;;;;;;9.90;3.08;;;;;;;;;;5015291;28;20118;-88
2021/01/19 03:09:34;;;;;;;8.27;2.78;;;;;;;;;;5015064;28;20124;-89
2021/01/19 03:12:00;;;;;;;9.85;2.92;;;;;;;;;;5083397;28;20033;-88
2021/01/19 03:14:26;;;;;;;11.52;2.55;;;;;;;;;;5082750;28;20037;-87
2021/01/19 03:16:54;;;;;;;8.95;2.40;;;;;;;;;;5082987;28;20091;-87
2021/01/19 03:19:20;;;;;;;9.38;2.08;;;;;;;;;;5083423;28;20356;-87
2021/01/19 03:21:46;;;;;;;9.88;2.38;;;;;;;;;;5015051;28;20057;-86
2021/01/19 03:24:12;;;;;;;12.52;2.20;;;;;;;;;;5082891;28;20040;-87
2021/01/19 03:26:39;;;;;;;7.40;2.05;;;;;;;;;;5082982;28;20055;-89
2021/01/19 03:29:05;;;;;;;10.30;2.47;;;;;;;;;;5015564;28;20188;-88
2021/01/19 03:31:32;;;;;;;9.77;2.35;;;;;;;;;;5082220;28;20072;-86
2021/01/19 03:33:58;;;;;;;6.10;2.03;;;;;;;;;;5081619;28;20063;-86
2021/01/19 03:36:24;;;;;;;11.55;2.50;;;;;;;;;;5081872;28;20101;-89
2021/01/19 03:38:50;;;;;;;6.78;2.03;;;;;;;;;;5013342;28;20155;-88
2021/01/19 03:41:16;;;;;;;11.55;2.45;;;;;;;;;;5014229;28;20030;-87
2021/01/19 03:43:42;;;;;;;8.63;1.90;;;;;;;;;;5082910;28;20034;-84
2021/01/19 03:46:08;;;;;;;9.60;2.20;;;;;;;;;;5082090;28;20056;-87
2021/01/19 03:48:34;;;;;;;6.18;2.15;;;;;;;;;;5015154;28;20034;-87
2021/01/19 03:51:01;;;;;;;11.73;2.72;;;;;;;;;;5082818;28;20037;-86
2021/01/19 03:53:27;;;;;;;6.20;1.95;;;;;;;;;;5082832;28;20030;-86
2021/01/19 03:55:53;;;;;;;9.35;2.22;;;;;;;;;;5081902;28;20034;-90
2021/01/19 03:58:19;;;;;;;14.13;2.35;;;;;;;;;;5013490;28;20041;-86
2021/01/19 04:00:45;;;;;;;6.32;1.92;;;;;;;;;;5082669;28;20037;-88
2021/01/19 04:03:11;;;;;;;7.13;2.05;;;;;;;;;;5083729;28;20030;-89
2021/01/19 04:05:37;;;;;;;14.05;2.08;;;;;;;;;;5082452;28;20140;-88
2021/01/19 04:08:03;;;;;;;7.70;1.67;;;;;;;;;;5013800;28;20033;-88
2021/01/19 04:10:29;;;;;;;14.50;1.90;;;;;;;;;;5014606;28;20038;-86
2021/01/19 04:12:55;;;;;;;8.23;1.88;;;;;;;;;;5081813;28;20045;-86
2021/01/19 04:15:22;;;;;;;4.70;1.60;;;;;;;;;;5081839;28;20058;-86
2021/01/19 04:17:48;;;;;;;9.75;1.90;;;;;;;;;;5083287;28;20060;-85
2021/01/19 04:20:14;;;;;;;9.52;2.85;;;;;;;;;;5086398;28;20364;-86
2021/01/19 04:22:40;;;;;;;3.90;1.80;;;;;;;;;;5085667;28;20051;-85
2021/01/19 04:25:06;;;;;;;9.07;2.60;;;;;;;;;;5086901;28;20208;-87
2021/01/19 04:27:33;;;;;;;8.73;2.50;;;;;;;;;;5016711;28;20037;-83
2021/01/19 04:30:03;;;;;;;11.63;2.78;;;;;;;;;;5018057;28;20022;-85
2021/01/19 04:32:30;;;;;;;8.10;1.83;;;;;;;;;;5018504;28;20107;-85
2021/01/19 04:34:56;;;;;;;10.25;2.40;;;;;;;;;;5084994;28;20116;-83
2021/01/19 04:37:22;;;;;;;11.43;2.53;;;;;;;;;;5085717;28;20348;-87
2021/01/19 04:39:48;;;;;;;6.93;2.08;;;;;;;;;;5016554;28;20102;-86
2021/01/19 04:42:18;;;;;;;8.57;2.22;;;;;;;;;;5084590;28;20044;-85
2021/01/19 04:44:44;;;;;;;9.07;2.10;;;;;;;;;;5084873;28;20025;-84
2021/01/19 04:47:10;;;;;;;6.50;2.20;;;;;;;;;;5085204;28;20038;-85
2021/01/19 04:49:37;;;;;;;6.53;2.28;;;;;;;;;;5016130;28;20033;-85
2021/01/19 04:52:04;;;;;;;9.40;2.78;;;;;;;;;;5085347;28;20037;-84
2021/01/19 04:54:36;;;;;;;9.77;2.63;;;;;;;;;;5016287;28;20022;-84
2021/01/19 04:57:07;;;;;;;4.90;1.80;;;;;;;;;;5086285;28;20030;-85
2021/01/19 04:59:38;;;;;;;7.85;1.88;;;;;;;;;;5085504;28;20033;-85
2021/01/19 05:02:19;;;;;;;8.13;1.95;;;;;;;;;;5064287;28;20346;-88
2021/01/19 05:04:47;;;;;;;5.65;1.80;;;;;;;;;;5042597;28;20030;-89
2021/01/19 05:07:19;;;;;;;9.52;2.60;;;;;;;;;;5081517;28;20039;-87
2021/01/19 05:10:03;;;;;;;8.93;2.50;;;;;;;;;;5083521;28;20431;-89
2021/01/19 05:12:34;;;;;;;6.93;2.83;;;;;;;;;;5083169;28;20043;-89
2021/01/19 05:15:02;;;;;;;6.70;1.85;;;;;;;;;;5081093;28;20503;-86
2021/01/19 05:17:28;;;;;;;7.40;2.40;;;;;;;;;;5081741;28;20031;-88
2021/01/19 05:19:56;;;;;;;10.63;2.67;;;;;;;;;;5071716;28;20024;-87
2021/01/19 05:22:23;;;;;;;11.30;2.47;;;;;;;;;;5085753;28;20026;-85
2021/01/19 05:24:49;;;;;;;8.82;2.88;;;;;;;;;;5017449;28;20148;-84
2021/01/19 05:27:16;;;;;;;10.90;1.63;;;;;;;;;;5084260;28;20069;-85
2021/01/19 05:29:46;;;;;;;7.05;1.80;;;;;;;;;;5084293;28;20036;-86
2021/01/19 05:32:14;;;;;;;8.77;2.20;;;;;;;;;;5084737;28;20037;-86
2021/01/19 05:34:40;;;;;;;7.85;2.22;;;;;;;;;;5086163;28;20037;-88
2021/01/19 05:37:06;;;;;;;6.97;2.88;;;;;;;;;;5011778;28;20026;-87
2021/01/19 05:39:32;;;;;;;11.43;2.28;;;;;;;;;;5069677;28;20038;-86
2021/01/19 05:41:58;;;;;;;7.32;2.40;;;;;;;;;;5069034;28;20041;-86
2021/01/19 05:44:33;;;;;;;7.70;2.05;;;;;;;;;;5082987;28;20023;-84
2021/01/19 05:47:06;;;;;;;6.72;1.98;;;;;;;;;;5100898;28;20340;-85
2021/01/19 05:49:32;;;;;;;9.13;2.33;;;;;;;;;;5083763;28;20127;-87
2021/01/19 05:52:00;;;;;;;6.93;2.10;;;;;;;;;;5100976;28;20028;-88
2021/01/19 05:54:27;;;;;;;12.43;2.72;;;;;;;;;;5082986;28;20134;-88
2021/01/19 05:57:20;;;;;;;7.07;2.30;;;;;;;;;;5082648;28;20447;-84
2021/01/19 05:59:47;;;;;;;7.63;3.17;;;;;;;;;;5076743;28;20047;-88
2021/01/19 06:02:16;;;;;;;6.18;2.58;;;;;;;;;;5109134;28;20123;-88
2021/01/19 06:04:49;;;;;;;10.95;2.35;;;;;;;;;;5091875;28;20048;-89
2021/01/19 06:07:17;;;;;;;11.55;2.45;;;;;;;;;;5082586;28;20043;-88
2021/01/19 06:09:44;;;;;;;8.85;2.72;;;;;;;;;;5089622;28;20024;-87
2021/01/19 06:12:10;;;;;;;6.72;2.55;;;;;;;;;;5102824;28;20024;-86
2021/01/19 06:14:37;;;;;;;11.45;2.85;;;;;;;;;;5087007;28;20023;-86
2021/01/19 06:17:10;;;;;;;12.13;2.55;;;;;;;;;;5088057;28;20032;-88
2021/01/19 06:19:37;;;;;;;8.02;2.42;;;;;;;;;;5089018;28;20064;-88
2021/01/19 06:22:07;;;;;;;7.18;2.30;;;;;;;;;;5111424;28;20028;-86
2021/01/19 06:24:34;;;;;;;10.65;2.78;;;;;;;;;;5093551;28;20028;-88
2021/01/19 06:27:01;;;;;;;7.97;2.55;;;;;;;;;;5104995;28;20111;-87
2021/01/19 06:29:28;;;;;;;8.07;2.15;;;;;;;;;;5110022;28;20073;-88
2021/01/19 06:31:58;;;;;;;6.53;1.80;;;;;;;;;;5089399;28;20028;-89
2021/01/19 06:34:25;;;;;;;7.90;2.63;;;;;;;;;;5088884;28;20126;-88
2021/01/19 06:36:51;;;;;;;13.88;2.83;;;;;;;;;;5088747;28;20121;-87
2021/01/19 06:39:31;;;;;;;9.02;2.60;;;;;;;;;;5108260;28;20047;-89
2021/01/19 06:42:05;;;;;;;12.68;2.88;;;;;;;;;;5080729;28;20028;-88
2021/01/19 06:44:36;;;;;;;10.18;2.75;;;;;;;;;;5093903;28;20072;-89
2021/01/19 06:47:04;;;;;;;6.65;2.40;;;;;;;;;;5087810;28;20350;-85
2021/01/19 06:49:34;;;;;;;4.55;2.53;;;;;;;;;;5104176;28;20024;-84
2021/01/19 06:52:03;;;;;;;7.03;2.25;;;;;;;;;;5082296;28;20043;-88
2021/01/19 06:54:29;;;;;;;;;;;;;;;;;;5083941;28;20028;-87
2021/01/19 06:57:01;;;;;;;10.07;2.53;;;;;;;;;;5075069;28;19916;-88
2021/01/19 06:59:33;;;;;;;5.32;2.47;;;;;;;;;;5053927;28;20067;-87
2021/01/19 07:02:00;;;;;;;8.70;2.30;;;;;;;;;;5101307;28;20042;-87
2021/01/19 07:04:26;;;;;;;7.10;2.03;;;;;;;;;;5091821;28;20127;-88
2021/01/19 07:06:52;;;;;;;8.73;2.05;;;;;;;;;;5085661;28;20043;-88
2021/01/19 07:09:36;;;;;;;6.78;2.85;;;;;;;;;;5103358;28;20022;-87
2021/01/19 07:12:07;;;;;;;10.00;2.72;;;;;;;;;;5106081;28;20047;-86
2021/01/19 07:14:37;;;;;;;4.82;2.20;;;;;;;;;;5089050;28;20122;-86
2021/01/19 07:17:07;;;;;;;10.38;3.13;;;;;;;;;;5091134;28;20047;-87
2021/01/19 07:19:44;;;;;;;7.35;2.63;;;;;;;;;;5094451;28;20019;-88
2021/01/19 07:22:13;;;;;;;8.80;2.63;;;;;;;;;;5080807;28;20074;-84
2021/01/19 07:24:39;;;;;;;6.43;2.63;;;;;;;;;;5108463;28;20236;-85
2021/01/19 07:27:07;;;;;;;7.10;2.70;;;;;;;;;;5103015;28;20036;-85
2021/01/19 07:29:34;;;;;;;9.53;2.70;;;;;;;;;;5078028;28;20026;-86
2021/01/19 07:32:05;;;;;;;7.75;3.00;;;;;;;;;;5085897;28;20024;-85
2021/01/19 07:34:31;;;;;;;5.53;1.95;;;;;;;;;;5078277;28;20028;-86
2021/01/19 07:36:57;;;;;;;5.47;2.40;;;;;;;;;;5066432;28;20125;-84
2021/01/19 07:39:23;;;;;;;5.93;3.15;;;;;;;;;;5078602;28;20056;-85
2021/01/19 07:41:49;;;;;;;10.00;2.83;;;;;;;;;;5103187;28;20135;-86
2021/01/19 07:44:25;;;;;;;7.15;2.58;;;;;;;;;;5078676;28;20059;-85
2021/01/19 07:46:51;;;;;;;8.35;3.05;;;;;;;;;;5075358;28;20040;-84
2021/01/19 07:49:17;;;;;;;6.25;2.22;;;;;;;;;;5081410;28;20348;-86
2021/01/19 07:51:45;;;;;;;8.75;2.85;;;;;;;;;;5082486;28;20024;-85
2021/01/19 07:54:12;;;;;;;7.13;2.35;;;;;;;;;;5083540;28;20028;-86
2021/01/19 07:56:38;;;;;;;7.97;2.90;;;;;;;;;;5077924;28;20024;-85
2021/01/19 07:59:14;;;;;;;5.20;2.53;;;;;;;;;;5088497;28;20072;-85
2021/01/19 08:01:40;;;;;;;9.45;3.22;;;;;;;;;;5096529;28;20020;-85
2021/01/19 08:04:10;;;;;;;5.63;3.60;;;;;;;;;;5079895;28;20016;-82
2021/01/19 08:06:37;;;;;;;6.47;2.33;;;;;;;;;;5074457;28;20039;-85
2021/01/19 08:09:12;;;;;;;6.55;2.88;;;;;;;;;;5083087;28;20016;-85
2021/01/19 08:11:38;;;;;;;3.42;2.10;;;;;;;;;;5097916;28;20111;-85
2021/01/19 08:14:05;;;;;;;4.72;1.77;;;;;;;;;;5093566;28;20027;-85
2021/01/19 08:16:32;;;;;;;6.45;2.50;;;;;;;;;;5103591;28;20342;-85
2021/01/19 08:19:05;;;;;;;5.60;2.42;;;;;;;;;;5087969;28;20122;-86
2021/01/19 08:21:35;;;;;;;5.95;2.63;;;;;;;;;;5113022;28;20023;-86
2021/01/19 08:24:06;;;;;;;5.53;2.45;;;;;;;;;;5099248;28;20031;-85
2021/01/19 08:26:32;;;;;;;7.85;2.33;;;;;;;;;;5079280;28;20035;-85
2021/01/19 08:29:00;;;;;;;6.95;2.33;;;;;;;;;;5096936;28;20392;-85
2021/01/19 08:31:31;;;;;;;7.28;3.70;;;;;;;;;;5078925;28;20054;-86
2021/01/19 08:34:01;;;;;;;6.22;2.42;;;;;;;;;;5085463;28;20023;-87
2021/01/19 08:36:28;;;;;;;5.88;2.42;;;;;;;;;;5099876;28;20036;-87
2021/01/19 08:38:56;;;;;;;3.40;2.25;;;;;;;;;;5074915;28;20131;-87
2021/01/19 08:41:22;;;;;;;4.18;2.17;;;;;;;;;;5092528;28;20024;-87
2021/01/19 08:43:58;;;;;;;3.05;2.00;;;;;;;;;;5076240;28;20024;-85
2021/01/19 08:46:25;;;;;;;2.85;2.00;;;;;;;;;;5088520;28;20085;-86
2021/01/19 08:48:52;;;;;;;2.95;2.65;;;;;;;;;;5087178;28;20032;-88
2021/01/19 08:51:25;;;;;;;4.03;2.40;;;;;;;;;;5078949;28;20036;-85
2021/01/19 08:53:52;;;;;;;4.93;1.90;;;;;;;;;;5079268;28;20035;-86
2021/01/19 08:56:22;;;;;;;3.50;2.30;;;;;;;;;;5075039;28;20067;-86
2021/01/19 08:58:48;;;;;;;3.55;2.30;;;;;;;;;;5083516;28;20027;-85
2021/01/19 09:01:15;;;;;;;3.40;1.88;;;;;;;;;;5079225;28;20032;-86
2021/01/19 09:03:41;;;;;;;3.53;2.03;;;;;;;;;;5083591;28;20032;-86
2021/01/19 09:06:12;;;;;;;4.10;1.80;;;;;;;;;;5095894;28;20039;-85
2021/01/19 09:08:40;;;;;;;3.22;2.13;;;;;;;;;;5081067;28;20028;-87
2021/01/19 09:11:07;;;;;;;3.53;2.10;;;;;;;;;;5082028;28;20028;-85
2021/01/19 09:13:40;;;;;;;4.03;2.42;;;;;;;;;;5076580;28;20036;-86
2021/01/19 09:16:06;;;;;;;3.63;1.80;;;;;;;;;;5081485;28;20031;-85
2021/01/19 09:18:33;;;;;;;2.78;2.00;;;;;;;;;;5076637;28;20107;-85
2021/01/19 09:21:04;;;;;;;5.72;2.20;;;;;;;;;;5097261;28;20071;-85
2021/01/19 09:23:31;;;;;;;5.55;2.38;;;;;;;;;;5089579;28;20059;-86
2021/01/19 09:26:02;;;;;;;3.42;1.90;;;;;;;;;;5088876;28;20032;-86
2021/01/19 09:28:28;;;;;;;4.80;1.85;;;;;;;;;;5081189;28;20456;-85
2021/01/19 09:30:54;;;;;;;5.63;2.40;;;;;;;;;;5089023;28;20024;-85
2021/01/19 09:33:20;;;;;;;2.97;1.77;;;;;;;;;;5073569;28;20047;-86
2021/01/19 09:35:46;;;;;;;3.05;1.70;;;;;;;;;;5092149;28;20034;-85
2021/01/19 09:38:21;;;;;;;2.90;1.75;;;;;;;;;;5045260;28;20039;-84
2021/01/19 09:40:47;;;;;;;4.15;1.70;;;;;;;;;;5080952;28;20306;-86
2021/01/19 09:43:15;;;;;;;1.70;1.35;;;;;;;;;;5098895;28;20086;-86
2021/01/19 09:45:42;;;;;;;1.92;1.27;;;;;;;;;;5086330;28;20077;-84
2021/01/19 09:48:09;;;;;;;2.58;1.50;;;;;;;;;;5083335;28;20027;-86
2021/01/19 09:50:35;;;;;;;3.25;1.50;;;;;;;;;;5087634;28;20029;-87
2021/01/19 09:53:01;;;;;;;3.80;1.52;;;;;;;;;;5073744;28;20081;-86
2021/01/19 09:55:31;;;;;;;4.60;1.55;;;;;;;;;;5089988;28;20042;-87
2021/01/19 09:58:00;;;;;;;3.33;1.38;;;;;;;;;;5093779;28;20047;-85
2021/01/19 10:00:30;;;;;;;4.85;1.60;;;;;;;;;;5074507;28;20429;-86
2021/01/19 10:02:56;;;;;;;2.13;1.40;;;;;;;;;;5079971;28;20036;-85
2021/01/19 10:05:23;;;;;;;3.83;1.45;;;;;;;;;;5088189;28;20032;-86
2021/01/19 10:07:50;;;;;;;2.03;1.17;;;;;;;;;;5106911;28;20028;-86
2021/01/19 10:10:19;;;;;;;5.35;1.58;;;;;;;;;;5078760;28;20027;-86
2021/01/19 10:12:45;;;;;;;2.30;1.50;;;;;;;;;;5082502;28;20047;-86
2021/01/19 10:15:15;;;;;;;1.92;1.27;;;;;;;;;;5074935;28;20506;-87
2021/01/19 10:17:41;;;;;;;1.92;1.10;;;;;;;;;;5087302;28;20029;-86
2021/01/19 10:20:15;;;;;;;2.83;1.30;;;;;;;;;;5068937;28;20055;-88
2021/01/19 10:22:42;;;;;;;3.03;1.20;;;;;;;;;;5076452;28;20024;-87
2021/01/19 10:25:09;;;;;;;2.10;1.20;;;;;;;;;;5087334;28;20024;-87
2021/01/19 10:27:40;;;;;;;1.63;0.98;;;;;;;;;;5082828;28;20444;-86
2021/01/19 10:30:07;;;;;;;4.28;1.40;;;;;;;;;;5076840;28;20355;-85
2021/01/19 10:32:49;;;;;;;2.63;0.90;;;;;;;;;;5069488;28;20343;-88
2021/01/19 10:35:24;;;;;;;6.35;1.60;;;;;;;;;;5095887;28;20030;-87
2021/01/19 10:37:51;;;;;;;2.65;1.10;;;;;;;;;;5074164;28;20020;-86
2021/01/19 10:40:18;;;;;;;2.45;1.05;;;;;;;;;;5091392;28;20028;-87
2021/01/19 10:42:44;;;;;;;4.88;1.45;;;;;;;;;;5032477;28;20038;-87
2021/01/19 10:45:11;;;;;;;2.75;1.35;;;;;;;;;;5064181;28;20024;-85
2021/01/19 10:47:41;;;;;;;2.28;1.08;;;;;;;;;;5090449;28;20024;-87
2021/01/19 10:50:14;;;;;;;3.67;1.50;;;;;;;;;;5091903;28;20084;-86
2021/01/19 10:52:41;;;;;;;2.47;1.20;;;;;;;;;;5096363;28;20046;-87
2021/01/19 10:55:10;;;;;;;3.92;1.33;;;;;;;;;;5084196;28;20067;-82
2021/01/19 10:57:36;;;;;;;;;;;;;;;;;;5094732;28;20038;-82
2021/01/19 11:00:05;;;;;;;5.13;1.25;;;;;;;;;;5084379;28;20287;-83
2021/01/19 11:02:33;;;;;;;3.53;1.67;;;;;;;;;;5095327;28;20028;-83
2021/01/19 11:05:00;;;;;;;3.28;1.58;;;;;;;;;;5079082;28;20117;-85
2021/01/19 11:07:26;;;;;;;3.63;1.50;;;;;;;;;;5076210;28;20048;-86
2021/01/19 11:09:53;;;;;;;2.60;1.27;;;;;;;;;;5094175;28;20023;-86
2021/01/19 11:12:19;;;;;;;2.83;1.65;;;;;;;;;;5091673;28;20032;-85
2021/01/19 11:14:45;;;;;;;5.05;2.05;;;;;;;;;;5097003;28;20027;-86
2021/01/19 11:17:12;;;;;;;1.90;1.48;;;;;;;;;;5078744;28;20099;-85
2021/01/19 11:19:38;;;;;;;2.10;1.70;;;;;;;;;;5082948;28;20355;-86
2021/01/19 11:22:11;;;;;;;2.55;1.42;;;;;;;;;;5097493;28;20059;-86
2021/01/19 11:24:37;;;;;;;1.63;1.42;;;;;;;;;;5081509;28;20047;-86
2021/01/19 11:27:03;;;;;;;3.72;2.05;;;;;;;;;;5079005;28;20557;-86
2021/01/19 11:29:29;;;;;;;2.17;1.83;;;;;;;;;;5094149;28;20239;-86
2021/01/19 11:31:55;;;;;;;2.67;1.75;;;;;;;;;;5073107;28;20032;-86
2021/01/19 11:34:21;;;;;;;3.40;1.88;;;;;;;;;;5074353;28;20056;-86
2021/01/19 11:36:47;;;;;;;2.90;1.73;;;;;;;;;;5084085;28;20024;-86
2021/01/19 11:39:14;;;;;;;2.63;1.65;;;;;;;;;;5083750;28;20039;-85
2021/01/19 11:41:40;;;;;;;2.35;1.70;;;;;;;;;;5077804;28;20077;-86
2021/01/19 11:44:07;;;;;;;3.15;1.85;;;;;;;;;;5077982;28;20024;-86
2021/01/19 11:46:34;;;;;;;3.20;2.20;;;;;;;;;;5073255;28;20452;-86
2021/01/19 11:49:01;;;;;;;2.35;1.85;;;;;;;;;;5074645;28;20338;-86
2021/01/19 11:51:29;;;;;;;1.85;1.50;;;;;;;;;;5077463;28;20024;-86
2021/01/19 11:53:56;;;;;;;2.63;1.70;;;;;;;;;;5091432;28;20040;-85
2021/01/19 11:56:31;;;;;;;3.72;1.95;;;;;;;;;;5094133;28;20215;-87
2021/01/19 11:58:57;;;;;;;2.88;1.50;;;;;;;;;;5070747;28;20024;-86
2021/01/19 12:01:23;;;;;;;2.67;2.28;;;;;;;;;;5048543;28;20044;-86
2021/01/19 12:03:49;;;;;;;3.97;1.80;;;;;;;;;;5060372;28;20032;-86
2021/01/19 12:06:16;;;;;;;2.28;1.95;;;;;;;;;;5083661;28;20281;-87
2021/01/19 12:08:46;;;;;;;2.70;2.00;;;;;;;;;;5076101;28;20070;-86
2021/01/19 12:11:12;;;;;;;3.25;1.95;;;;;;;;;;5085891;28;20126;-85
2021/01/19 12:13:38;;;;;;;3.70;1.75;;;;;;;;;;5074177;28;20024;-86
2021/01/19 12:16:06;;;;;;;2.83;2.20;;;;;;;;;;5088915;28;20094;-85
2021/01/19 12:18:32;;;;;;;2.17;1.67;;;;;;;;;;5093321;28;20560;-85
2021/01/19 12:20:58;;;;;;;5.18;1.90;;;;;;;;;;5075462;28;20061;-87
2021/01/19 12:23:25;;;;;;;3.30;2.00;;;;;;;;;;5059170;28;20098;-86
2021/01/19 12:25:51;;;;;;;5.15;2.10;;;;;;;;;;5054607;28;20094;-87
2021/01/19 12:28:17;;;;;;;2.40;1.80;;;;;;;;;;5061044;28;20030;-86
2021/01/19 12:30:43;;;;;;;2.20;1.98;;;;;;;;;;5059727;28;20020;-87
2021/01/19 12:33:09;;;;;;;4.40;2.00;;;;;;;;;;5079891;28;20028;-87
2021/01/19 12:35:36;;;;;;;2.67;1.90;;;;;;;;;;5079612;28;20028;-87
2021/01/19 12:38:02;;;;;;;2.30;1.80;;;;;;;;;;5052961;28;20030;-88
2021/01/19 12:40:28;;;;;;;2.90;2.05;;;;;;;;;;5066128;28;20038;-86
2021/01/19 12:42:54;;;;;;;4.10;2.20;;;;;;;;;;5071393;28;20037;-87
2021/01/19 12:45:24;;;;;;;5.03;2.33;;;;;;;;;;5108963;28;20118;-86
2021/01/19 12:47:51;;;;;;;2.15;1.95;;;;;;;;;;5092402;28;20038;-86
2021/01/19 12:50:18;;;;;;;3.30;1.98;;;;;;;;;;5086319;28;20036;-88
2021/01/19 12:52:44;;;;;;;2.97;2.13;;;;;;;;;;5074320;28;20033;-88
2021/01/19 12:55:11;;;;;;;2.95;2.20;;;;;;;;;;5067337;28;20030;-86
2021/01/19 12:57:38;;;;;;;4.25;2.45;;;;;;;;;;5037328;28;20033;-87
2021/01/19 13:00:10;;;;;;;2.50;2.30;;;;;;;;;;5069833;28;20047;-87
2021/01/19 13:02:36;;;;;;;4.30;2.72;;;;;;;;;;5062681;28;20183;-88
2021/01/19 13:05:04;;;;;;;3.03;2.50;;;;;;;;;;5089895;28;20127;-86
2021/01/19 13:07:32;;;;;;;4.40;2.65;;;;;;;;;;5083204;28;20059;-88
2021/01/19 13:09:58;;;;;;;5.68;2.97;;;;;;;;;;5078261;28;20114;-88
2021/01/19 13:12:25;;;;;;;2.60;2.33;;;;;;;;;;5028347;28;20073;-88
2021/01/19 13:14:52;;;;;;;2.83;2.20;;;;;;;;;;5086046;28;20072;-87
2021/01/19 13:17:18;;;;;;;2.83;2.40;;;;;;;;;;5051914;28;20074;-88
2021/01/19 13:19:44;;;;;;;4.35;2.25;;;;;;;;;;5089254;28;20024;-86
2021/01/19 13:22:10;;;;;;;2.90;2.35;;;;;;;;;;5108015;28;20031;-87
2021/01/19 13:24:37;;;;;;;5.22;2.67;;;;;;;;;;5105356;28;20032;-87
2021/01/19 13:27:04;;;;;;;3.25;2.38;;;;;;;;;;5108121;28;20032;-87
2021/01/19 13:29:30;;;;;;;3.53;2.47;;;;;;;;;;5091185;28;20032;-88
2021/01/19 13:32:00;;;;;;;5.18;2.47;;;;;;;;;;5051892;28;20037;-87
2021/01/19 13:34:27;;;;;;;2.58;2.10;;;;;;;;;;5062035;28;20513;-87
2021/01/19 13:36:54;;;;;;;3.38;2.38;;;;;;;;;;5059737;28;20030;-87
2021/01/19 13:39:21;;;;;;;4.65;2.55;;;;;;;;;;5080907;28;20032;-86
2021/01/19 13:42:06;;;;;;;3.05;2.58;;;;;;;;;;5068947;28;20129;-88
2021/01/19 13:44:33;;;;;;;2.55;2.30;;;;;;;;;;5102044;28;20392;-85
2021/01/19 13:46:59;;;;;;;5.68;2.70;;;;;;;;;;5093852;28;20036;-85
2021/01/19 13:49:28;;;;;;;6.93;4.22;;;;;;;;;;5099953;28;20027;-86
2021/01/19 13:51:54;;;;;;;3.38;3.03;;;;;;;;;;5101072;28;20024;-86
2021/01/19 13:54:20;;;;;;;6.10;3.35;;;;;;;;;;5085633;28;20034;-85
2021/01/19 13:56:46;;;;;;;3.90;2.47;;;;;;;;;;5100948;28;20140;-87
2021/01/19 13:59:13;;;;;;;6.75;2.95;;;;;;;;;;5104203;28;20034;-87
2021/01/19 14:01:46;;;;;;;5.75;2.90;;;;;;;;;;5085131;28;20027;-86
2021/01/19 14:04:12;;;;;;;3.90;3.08;;;;;;;;;;5101576;28;20042;-84
2021/01/19 14:06:38;;;;;;;2.75;2.55;;;;;;;;;;5092504;28;20393;-86
2021/01/19 14:09:05;;;;;;;4.90;3.08;;;;;;;;;;5071797;28;20052;-86
2021/01/19 14:11:31;;;;;;;5.30;3.30;;;;;;;;;;5044250;28;20024;-86
2021/01/19 14:13:58;;;;;;;3.92;3.40;;;;;;;;;;5106404;28;20118;-86
2021/01/19 14:16:24;;;;;;;4.28;3.75;;;;;;;;;;5106899;28;20015;-86
2021/01/19 14:18:51;;;;;;;5.40;3.63;;;;;;;;;;5097574;28;20086;-85
2021/01/19 14:21:17;;;;;;;4.38;3.97;;;;;;;;;;5034809;28;20031;-86
2021/01/19 14:23:43;;;;;;;6.15;4.05;;;;;;;;;;5067579;28;20022;-86
2021/01/19 14:26:10;;;;;;;4.97;4.47;;;;;;;;;;5052499;28;20044;-87
2021/01/19 14:28:36;;;;;;;5.75;3.90;;;;;;;;;;5094461;28;20028;-86
2021/01/19 14:31:03;;;;;;;10.43;5.53;;;;;;;;;;5070766;28;20027;-87
2021/01/19 14:33:29;;;;;;;5.47;4.78;;;;;;;;;;5068353;28;20231;-86
2021/01/19 14:35:56;;;;;;;4.93;4.28;;;;;;;;;;5097040;28;20093;-87
2021/01/19 14:38:22;;;;;;;6.93;5.00;;;;;;;;;;5103873;28;20143;-87
2021/01/19 14:40:49;;;;;;;4.80;4.28;;;;;;;;;;5081429;28;20217;-87
2021/01/19 14:43:15;;;;;;;6.22;5.40;;;;;;;;;;5094535;28;20018;-86
2021/01/19 14:45:41;;;;;;;5.03;4.53;;;;;;;;;;5097306;28;20058;-87